Clearfield, PA

12:37 PM EDT on April 01, 2015 (GMT -0400)
Clearfield-Lawrence | | Change Station
CLOSE
Current Station
Airport
Location: Clearfield,
Elevation: 1516 ft
Nearby Weather Stations

Elev 1516 ft 41.05 °N, 78.41 °W | Updated 43 minutes ago

Overcast
Overcast
37 °F
Feels Like 32 °F
N
6
Wind Variable Wind from WNW

Today
High -- | Low -- °F
--% Chance of Precip.
Yesterday
High -- | Low -- °F
Precip. -- in
6:57 AM 7:38 PM
Waxing Gibbous, 93% visible
Pressure 30.18 in
Visibility 10.0 miles
Clouds Overcast 3700 ft
Windchill 32 °F
Dew Point 22 °F
Humidity 54%
Rainfall 0.00 in
Snow Depth Not available.
UV 2 out of 12
Pollen 4.80 out of 12
Air Quality Not available.
Flu Activity Not available.
METAR KFIG 011554Z AUTO 29005KT 10SM OVC037 03/M06 A3014 RMK AO2 SLP219 T00281056

More Conditions Fewer Conditions

Pressure 30.18 in
Visibility 10.0 miles
Clouds Overcast 3700 ft
Windchill 32 °F
Dew Point 22 °F
Humidity 54%
Rainfall 0.00 in
Snow Depth Not available.
UV 2 out of 12
Pollen 4.80 out of 12
Air Quality Not available.
Flu Activity Not available.
METAR KFIG 011554Z AUTO 29005KT 10SM OVC037 03/M06 A3014 RMK AO2 SLP219 T00281056

More Conditions Fewer Conditions

10-Day Weather Forecast

Almanac

Astronomy

Apr. 01, 2015 Rise Set
Actual Time
Civil Twilight
Nautical Twilight
Astronomical Twilight
Moon
Length of Visible Light
Length of Day
Tomorrow will be .
, % of the Moon is Illuminated

Today's Extremes

State Highs State Lows

Community

WunderPhotos

Upload Photos

1,810,000 photos uploaded!

WunderBlogs® & News

Nearby

Air Quality

  Air Quality AQ Index Pollutant
Not available.

Snow Depth

Station Depth Elevation

Earthquake Activity

City Distance Mag. Time & Date
Minimum magnitude displayed is 2.5.

Coastal Water Temperatures

Place Temperature

Stations

Nearby Weather Stations

Station Location Temp. Windchill Dew Point Humidity Wind Precip. Elev Updated Type